Arthur, Illinois
Current Conditions -  °F | °C
As of 4:20 PM on Monday 26 Jan 2015 (Local Time) from KMTO Reporting Station
Overcast Overcast  
Wind Chill: 19°   Ceiling: 3500
Heat Index: 26°   Visibility: 10mi
Dew Point: 22°   Wind: 6mph
Humidity: 84%   Direction: 180°S
Pressure: 29.91"   Gusts: NA
Location:  39.71°N, 88.47°W
Report Text: KMTO 262220Z AUTO 18005KT 10SM FEW009 OVC035 M03/M06 A2991 RMK AO2 SNE05 P0000 T10331056
Loading
Personal Weather Stations






























Interactive Weather Map New forecast layout! Learn more

10-Day Weather Forecast

Advertisements
Track Severe Weather on mobile